Time;durP1;ratioP1;P1;durP2;ratioP2;P2;SDS_P1;SDS_P2;PMS_P1;PMS_P2;Temp;Humidity;BMP_temperature;BMP_pressure;BME280_temperature;BME280_humidity;BME280_pressure;Samples;Min_cycle;Max_cycle;Signal;HPM_P1;HPM_P2
2022/05/09 00:01:26;;;;;;;13.88;7.22;;;;;;;;;;5013150;28;20075;-78
2022/05/09 00:03:53;;;;;;;11.20;6.38;;;;;;;;;;5012900;28;20083;-78
2022/05/09 00:06:19;;;;;;;9.52;6.20;;;;;;;;;;5011233;28;20049;-78
2022/05/09 00:08:45;;;;;;;11.80;7.00;;;;;;;;;;5011703;28;20033;-79
2022/05/09 00:11:12;;;;;;;12.32;7.63;;;;;;;;;;5012630;28;20030;-78
2022/05/09 00:13:39;;;;;;;10.02;7.15;;;;;;;;;;5012729;28;20389;-79
2022/05/09 00:16:05;;;;;;;11.45;6.95;;;;;;;;;;5012977;28;20026;-82
2022/05/09 00:18:31;;;;;;;10.57;6.65;;;;;;;;;;5011747;28;20014;-81
2022/05/09 00:20:57;;;;;;;11.40;7.60;;;;;;;;;;5012401;28;20033;-80
2022/05/09 00:23:23;;;;;;;10.50;6.18;;;;;;;;;;5010672;28;20029;-80
2022/05/09 00:25:49;;;;;;;9.73;6.07;;;;;;;;;;5011737;28;20069;-79
2022/05/09 00:28:15;;;;;;;10.95;6.30;;;;;;;;;;5011979;28;20105;-81
2022/05/09 00:30:42;;;;;;;7.75;5.25;;;;;;;;;;5012060;28;20018;-81
2022/05/09 00:33:08;;;;;;;9.90;6.55;;;;;;;;;;5010724;28;20409;-79
2022/05/09 00:35:35;;;;;;;8.55;6.20;;;;;;;;;;5010672;28;20021;-78
2022/05/09 00:38:01;;;;;;;8.68;5.10;;;;;;;;;;5012614;28;20041;-78
2022/05/09 00:40:27;;;;;;;11.45;5.53;;;;;;;;;;5012503;28;20021;-78
2022/05/09 00:42:54;;;;;;;8.10;5.32;;;;;;;;;;5011245;28;20032;-78
2022/05/09 00:45:23;;;;;;;9.18;6.00;;;;;;;;;;5012045;28;20064;-79
2022/05/09 00:47:49;;;;;;;11.15;5.78;;;;;;;;;;5011081;28;20404;-79
2022/05/09 00:50:19;;;;;;;11.35;5.97;;;;;;;;;;5012461;28;20025;-79
2022/05/09 00:52:49;;;;;;;12.93;5.90;;;;;;;;;;5011072;28;20037;-78
2022/05/09 00:55:20;;;;;;;9.13;6.55;;;;;;;;;;5012299;28;20026;-78
2022/05/09 00:57:53;;;;;;;9.75;6.03;;;;;;;;;;5012090;28;20029;-78
2022/05/09 01:00:21;;;;;;;11.75;6.82;;;;;;;;;;5010820;28;20152;-78
2022/05/09 01:02:50;;;;;;;9.98;6.07;;;;;;;;;;5010650;28;20033;-78
2022/05/09 01:05:16;;;;;;;16.35;6.68;;;;;;;;;;5011789;28;20045;-78
2022/05/09 01:07:43;;;;;;;9.32;7.13;;;;;;;;;;5010895;28;20022;-77
2022/05/09 01:10:14;;;;;;;15.80;6.90;;;;;;;;;;5010795;28;20029;-78
2022/05/09 01:12:42;;;;;;;9.60;5.88;;;;;;;;;;5010840;28;20026;-78
2022/05/09 01:15:10;;;;;;;8.32;6.32;;;;;;;;;;5010694;28;20493;-78
2022/05/09 01:17:39;;;;;;;8.50;6.45;;;;;;;;;;5012364;28;20037;-78
2022/05/09 01:20:05;;;;;;;9.98;6.28;;;;;;;;;;5011883;28;20018;-78
2022/05/09 01:22:34;;;;;;;8.35;6.45;;;;;;;;;;5012049;28;20022;-79
2022/05/09 01:25:03;;;;;;;11.20;5.85;;;;;;;;;;5011952;28;20059;-79
2022/05/09 01:27:30;;;;;;;11.52;5.82;;;;;;;;;;5010607;28;20060;-80
2022/05/09 01:30:14;;;;;;;9.13;5.65;;;;;;;;;;5011251;28;20022;-79
2022/05/09 01:32:43;;;;;;;10.10;6.75;;;;;;;;;;5015672;28;20026;-79
2022/05/09 01:35:13;;;;;;;10.40;6.70;;;;;;;;;;5014588;28;20125;-79
2022/05/09 01:37:42;;;;;;;10.13;6.78;;;;;;;;;;5015573;28;20105;-79
2022/05/09 01:40:08;;;;;;;11.07;6.78;;;;;;;;;;5015464;28;20481;-79
2022/05/09 01:42:35;;;;;;;9.50;6.50;;;;;;;;;;5014251;28;20018;-78
2022/05/09 01:45:01;;;;;;;13.35;7.60;;;;;;;;;;5014310;28;20037;-79
2022/05/09 01:50:12;;;;;;;9.25;6.40;;;;;;;;;;5015632;28;20053;-79
2022/05/09 01:52:39;;;;;;;9.55;6.32;;;;;;;;;;5015649;28;20021;-81
2022/05/09 01:55:06;;;;;;;12.50;6.50;;;;;;;;;;5015305;28;20106;-80
2022/05/09 01:57:32;;;;;;;11.80;6.43;;;;;;;;;;5015359;28;20022;-81
2022/05/09 01:59:58;;;;;;;9.02;6.05;;;;;;;;;;5014265;28;20022;-80
2022/05/09 02:02:24;;;;;;;13.15;6.25;;;;;;;;;;5015806;28;20087;-79
2022/05/09 02:04:50;;;;;;;9.25;6.03;;;;;;;;;;5015452;28;20043;-80
2022/05/09 02:07:19;;;;;;;13.60;5.97;;;;;;;;;;5015313;28;20404;-80
2022/05/09 02:09:46;;;;;;;11.68;6.47;;;;;;;;;;5014079;28;20031;-80
2022/05/09 02:12:13;;;;;;;9.85;6.32;;;;;;;;;;5013845;28;20065;-80
2022/05/09 02:14:40;;;;;;;13.07;6.07;;;;;;;;;;5015466;28;20021;-80
2022/05/09 02:17:06;;;;;;;12.18;5.30;;;;;;;;;;5013813;28;20472;-81
2022/05/09 02:19:33;;;;;;;7.38;5.38;;;;;;;;;;5014830;28;20022;-80
2022/05/09 02:22:00;;;;;;;9.95;5.53;;;;;;;;;;5014816;28;20040;-80
2022/05/09 02:24:27;;;;;;;13.15;6.35;;;;;;;;;;5015075;28;20109;-79
2022/05/09 02:26:53;;;;;;;9.25;5.60;;;;;;;;;;5010430;28;20482;-79
2022/05/09 02:29:19;;;;;;;8.77;5.75;;;;;;;;;;5015090;28;20025;-81
2022/05/09 02:31:45;;;;;;;11.65;5.60;;;;;;;;;;5015232;28;20053;-81
2022/05/09 02:34:12;;;;;;;8.25;5.00;;;;;;;;;;5014990;28;20068;-80
2022/05/09 02:36:38;;;;;;;7.65;5.22;;;;;;;;;;5013524;28;20117;-81
2022/05/09 02:39:04;;;;;;;6.70;4.57;;;;;;;;;;5014521;28;20030;-82
2022/05/09 02:41:30;;;;;;;10.65;5.63;;;;;;;;;;5014938;28;20057;-82
2022/05/09 02:43:56;;;;;;;5.88;4.90;;;;;;;;;;5013389;28;20034;-81
2022/05/09 02:46:22;;;;;;;10.95;5.22;;;;;;;;;;5013506;28;20433;-80
2022/05/09 02:48:48;;;;;;;10.30;5.47;;;;;;;;;;5014764;28;20040;-80
2022/05/09 02:51:14;;;;;;;8.88;5.85;;;;;;;;;;5014219;28;20022;-79
2022/05/09 02:53:40;;;;;;;10.45;6.45;;;;;;;;;;5013228;28;20456;-79
2022/05/09 02:56:07;;;;;;;14.68;6.90;;;;;;;;;;5014051;28;20022;-79
2022/05/09 02:58:33;;;;;;;10.05;7.45;;;;;;;;;;5013263;28;20117;-79
2022/05/09 03:00:59;;;;;;;10.88;6.50;;;;;;;;;;5013074;28;20026;-79
2022/05/09 03:06:11;;;;;;;10.75;6.70;;;;;;;;;;5013975;28;20445;-78
2022/05/09 03:08:37;;;;;;;8.60;6.60;;;;;;;;;;5014277;28;20026;-78
2022/05/09 03:11:03;;;;;;;12.52;6.35;;;;;;;;;;5014197;28;20018;-79
2022/05/09 03:13:29;;;;;;;10.40;6.00;;;;;;;;;;5013894;28;20047;-79
2022/05/09 03:15:58;;;;;;;10.20;6.53;;;;;;;;;;5012781;28;20025;-79
2022/05/09 03:18:24;;;;;;;10.40;6.60;;;;;;;;;;5012715;28;20108;-79
2022/05/09 03:20:51;;;;;;;10.18;6.65;;;;;;;;;;5013678;28;20022;-79
2022/05/09 03:23:17;;;;;;;8.50;5.88;;;;;;;;;;5012593;28;20104;-78
2022/05/09 03:25:43;;;;;;;9.10;6.68;;;;;;;;;;5013536;28;20034;-79
2022/05/09 03:28:14;;;;;;;9.63;7.03;;;;;;;;;;5013848;28;20025;-77
2022/05/09 03:30:40;;;;;;;14.45;7.28;;;;;;;;;;5013394;28;20057;-79
2022/05/09 03:33:06;;;;;;;14.25;7.32;;;;;;;;;;5013819;28;20074;-79
2022/05/09 03:35:33;;;;;;;11.20;6.30;;;;;;;;;;5014124;28;20037;-83
2022/05/09 03:37:59;;;;;;;11.05;6.05;;;;;;;;;;5013646;28;20017;-81
2022/05/09 03:40:25;;;;;;;11.65;7.45;;;;;;;;;;5011693;28;20021;-81
2022/05/09 03:42:51;;;;;;;9.43;5.97;;;;;;;;;;5012175;28;21552;-84
2022/05/09 03:45:18;;;;;;;9.07;6.50;;;;;;;;;;5009915;28;20110;-84
2022/05/09 03:47:44;;;;;;;14.63;5.55;;;;;;;;;;5013226;28;20022;-82
2022/05/09 03:50:11;;;;;;;13.93;6.78;;;;;;;;;;5013591;28;20086;-82
2022/05/09 03:52:37;;;;;;;10.48;5.90;;;;;;;;;;5013078;28;20030;-80
2022/05/09 03:55:04;;;;;;;10.23;6.57;;;;;;;;;;5012483;28;20053;-82
2022/05/09 03:57:30;;;;;;;12.30;6.78;;;;;;;;;;5013648;28;20058;-82
2022/05/09 03:59:56;;;;;;;9.18;5.35;;;;;;;;;;5013652;28;20026;-83
2022/05/09 04:02:22;;;;;;;13.25;6.85;;;;;;;;;;5005179;28;20040;-82
2022/05/09 04:04:48;;;;;;;13.07;7.00;;;;;;;;;;5012561;28;20473;-84
2022/05/09 04:07:14;;;;;;;9.88;6.13;;;;;;;;;;5012866;28;20050;-83
2022/05/09 04:09:40;;;;;;;9.38;6.03;;;;;;;;;;5006812;28;20022;-83
2022/05/09 04:12:06;;;;;;;15.63;6.32;;;;;;;;;;4996472;28;20045;-84
2022/05/09 04:17:17;;;;;;;13.57;6.68;;;;;;;;;;5011881;28;20550;-84
2022/05/09 04:19:44;;;;;;;14.73;7.60;;;;;;;;;;5012656;28;20014;-84
2022/05/09 04:22:10;;;;;;;10.85;6.82;;;;;;;;;;5012641;28;20516;-84
2022/05/09 04:24:36;;;;;;;19.17;7.18;;;;;;;;;;4997939;28;20068;-85
2022/05/09 04:27:03;;;;;;;14.77;7.45;;;;;;;;;;5007744;28;20030;-84
2022/05/09 04:29:29;;;;;;;16.33;7.30;;;;;;;;;;5012693;28;20014;-85
2022/05/09 04:31:55;;;;;;;14.27;8.65;;;;;;;;;;5010533;28;20030;-85
2022/05/09 04:34:21;;;;;;;15.45;8.52;;;;;;;;;;5010697;28;20041;-83
2022/05/09 04:36:47;;;;;;;14.60;7.55;;;;;;;;;;4996760;28;20023;-83
2022/05/09 04:39:13;;;;;;;13.82;7.63;;;;;;;;;;4993759;28;20060;-86
2022/05/09 04:41:39;;;;;;;16.88;7.80;;;;;;;;;;5004558;28;20018;-85
2022/05/09 04:44:05;;;;;;;16.05;6.53;;;;;;;;;;5009963;28;20091;-82
2022/05/09 04:46:32;;;;;;;12.00;6.03;;;;;;;;;;5005269;28;20528;-82
2022/05/09 04:48:58;;;;;;;12.85;6.78;;;;;;;;;;5010002;28;20030;-82
2022/05/09 04:51:24;;;;;;;13.30;6.40;;;;;;;;;;5011922;28;20020;-82
2022/05/09 04:53:51;;;;;;;9.65;6.60;;;;;;;;;;5008425;28;20025;-82
2022/05/09 04:56:17;;;;;;;11.57;6.63;;;;;;;;;;5012489;28;20022;-84
2022/05/09 04:58:43;;;;;;;10.13;5.90;;;;;;;;;;5012069;28;20037;-81
2022/05/09 05:01:10;;;;;;;11.75;6.45;;;;;;;;;;5009075;28;20044;-83
2022/05/09 05:03:36;;;;;;;12.20;6.75;;;;;;;;;;5012679;28;20389;-83
2022/05/09 05:06:03;;;;;;;8.88;6.15;;;;;;;;;;5008543;28;20057;-83
2022/05/09 05:08:33;;;;;;;11.45;7.45;;;;;;;;;;5007167;28;20026;-83
2022/05/09 05:11:00;;;;;;;21.52;8.48;;;;;;;;;;5025700;28;20026;-81
2022/05/09 05:13:26;;;;;;;15.25;7.78;;;;;;;;;;5010973;28;20018;-82
2022/05/09 05:15:53;;;;;;;12.65;7.65;;;;;;;;;;5010691;28;20104;-82
2022/05/09 05:18:20;;;;;;;13.60;6.95;;;;;;;;;;5011916;28;20026;-83
2022/05/09 05:20:46;;;;;;;11.57;6.75;;;;;;;;;;5008039;28;20026;-84
2022/05/09 05:23:12;;;;;;;12.18;6.75;;;;;;;;;;5014439;28;20036;-87
2022/05/09 05:25:40;;;;;;;11.45;7.03;;;;;;;;;;5011368;28;20081;-84
2022/05/09 05:28:07;;;;;;;12.02;6.82;;;;;;;;;;5000764;28;20022;-79
2022/05/09 05:30:35;;;;;;;12.57;7.90;;;;;;;;;;4990725;28;20030;-79
2022/05/09 05:33:02;;;;;;;11.32;6.95;;;;;;;;;;4992981;28;20022;-81
2022/05/09 05:35:28;;;;;;;16.02;6.38;;;;;;;;;;5007539;28;20069;-82
2022/05/09 05:37:55;;;;;;;13.93;6.97;;;;;;;;;;5008690;28;20028;-81
2022/05/09 05:40:21;;;;;;;11.05;6.95;;;;;;;;;;5005526;28;20088;-83
2022/05/09 05:42:48;;;;;;;13.60;7.50;;;;;;;;;;5010470;28;20026;-83
2022/05/09 05:45:15;;;;;;;17.25;7.63;;;;;;;;;;5009911;28;20034;-83
2022/05/09 05:47:41;;;;;;;13.07;6.53;;;;;;;;;;5010990;28;20046;-85
2022/05/09 05:50:09;;;;;;;13.20;8.52;;;;;;;;;;5012418;28;20073;-84
2022/05/09 05:52:35;;;;;;;14.88;7.00;;;;;;;;;;4996493;28;20035;-83
2022/05/09 05:55:01;;;;;;;12.63;7.25;;;;;;;;;;4991856;28;20224;-82
2022/05/09 05:57:28;;;;;;;10.50;6.97;;;;;;;;;;4991761;28;20041;-82
2022/05/09 05:59:54;;;;;;;10.18;7.22;;;;;;;;;;5009615;28;20022;-83
2022/05/09 06:02:21;;;;;;;12.07;6.72;;;;;;;;;;5009510;28;20517;-82
2022/05/09 06:04:47;;;;;;;13.23;8.00;;;;;;;;;;4991890;28;20030;-83
2022/05/09 06:07:13;;;;;;;13.25;7.90;;;;;;;;;;5009071;28;20080;-83
2022/05/09 06:09:40;;;;;;;19.63;7.60;;;;;;;;;;5009463;28;20108;-82
2022/05/09 06:12:07;;;;;;;16.80;7.90;;;;;;;;;;5011248;28;20022;-81
2022/05/09 06:14:33;;;;;;;17.55;8.43;;;;;;;;;;5011149;28;20018;-83
2022/05/09 06:16:59;;;;;;;14.40;8.50;;;;;;;;;;5013305;28;20038;-82
2022/05/09 06:19:25;;;;;;;14.32;8.05;;;;;;;;;;5000075;28;20525;-83
2022/05/09 06:21:51;;;;;;;15.15;8.27;;;;;;;;;;5014822;28;20025;-82
2022/05/09 06:24:18;;;;;;;14.90;7.97;;;;;;;;;;5014624;28;20057;-83
2022/05/09 06:26:48;;;;;;;13.88;8.60;;;;;;;;;;5012367;28;20017;-84
2022/05/09 06:29:14;;;;;;;16.05;9.73;;;;;;;;;;4997740;28;20469;-84
2022/05/09 06:31:40;;;;;;;15.18;8.57;;;;;;;;;;5014816;28;20022;-84
2022/05/09 06:34:11;;;;;;;12.23;7.65;;;;;;;;;;4997436;28;20049;-83
2022/05/09 06:36:37;;;;;;;20.25;8.05;;;;;;;;;;5015083;28;20100;-83
2022/05/09 06:39:04;;;;;;;11.38;7.68;;;;;;;;;;5014540;28;20017;-82
2022/05/09 06:41:30;;;;;;;14.73;7.13;;;;;;;;;;5014707;28;20045;-83
2022/05/09 06:43:56;;;;;;;14.65;7.85;;;;;;;;;;5015053;28;20034;-84
2022/05/09 06:46:22;;;;;;;12.68;7.07;;;;;;;;;;5014787;28;20021;-84
2022/05/09 06:48:48;;;;;;;11.27;7.38;;;;;;;;;;5014746;28;20021;-82
2022/05/09 06:51:14;;;;;;;15.68;7.70;;;;;;;;;;5014114;28;20044;-82
2022/05/09 06:53:40;;;;;;;18.92;9.93;;;;;;;;;;5015401;28;20029;-85
2022/05/09 06:56:07;;;;;;;19.60;9.60;;;;;;;;;;5015225;28;20072;-84
2022/05/09 06:58:33;;;;;;;12.18;8.43;;;;;;;;;;5014149;28;20026;-82
2022/05/09 07:00:59;;;;;;;19.33;8.55;;;;;;;;;;5014357;28;20026;-82
2022/05/09 07:03:25;;;;;;;17.25;7.35;;;;;;;;;;5014110;28;20014;-81
2022/05/09 07:05:52;;;;;;;19.77;8.25;;;;;;;;;;5014400;28;20050;-79
2022/05/09 07:08:23;;;;;;;23.63;9.05;;;;;;;;;;5007202;28;20025;-82
2022/05/09 07:10:49;;;;;;;13.98;6.38;;;;;;;;;;5011782;28;20010;-83
2022/05/09 07:13:15;;;;;;;17.70;6.90;;;;;;;;;;5013809;28;20014;-80
2022/05/09 07:15:41;;;;;;;14.10;6.45;;;;;;;;;;5013553;28;20108;-80
2022/05/09 07:18:08;;;;;;;25.17;14.85;;;;;;;;;;4996288;28;20030;-82
2022/05/09 07:20:35;;;;;;;19.58;10.05;;;;;;;;;;5013222;28;20021;-80
2022/05/09 07:23:10;;;;;;;22.85;11.18;;;;;;;;;;5013460;28;20022;-80
2022/05/09 07:25:36;;;;;;;27.05;9.63;;;;;;;;;;5012938;28;20044;-80
2022/05/09 07:28:02;;;;;;;21.40;11.23;;;;;;;;;;5000407;28;20023;-79
2022/05/09 07:30:28;;;;;;;14.50;8.05;;;;;;;;;;4992927;28;20118;-79
2022/05/09 07:32:55;;;;;;;15.98;7.60;;;;;;;;;;4994916;28;20030;-82
2022/05/09 07:35:21;;;;;;;15.00;7.05;;;;;;;;;;4994695;28;20033;-80
2022/05/09 07:37:47;;;;;;;15.95;8.23;;;;;;;;;;5000824;28;20030;-83
2022/05/09 07:40:15;;;;;;;19.15;8.25;;;;;;;;;;4992892;28;20027;-80
2022/05/09 07:42:42;;;;;;;16.83;8.65;;;;;;;;;;4992891;28;20422;-80
2022/05/09 07:45:09;;;;;;;15.73;7.72;;;;;;;;;;4993996;28;20061;-81
2022/05/09 07:47:35;;;;;;;11.65;6.45;;;;;;;;;;4994016;28;20065;-80
2022/05/09 07:50:01;;;;;;;17.27;7.82;;;;;;;;;;4992710;28;20421;-79
2022/05/09 07:52:27;;;;;;;20.67;11.38;;;;;;;;;;4992576;28;20037;-80
2022/05/09 07:54:53;;;;;;;18.42;12.18;;;;;;;;;;4993841;28;20041;-79
2022/05/09 07:57:19;;;;;;;13.55;5.93;;;;;;;;;;4994465;28;20014;-79
2022/05/09 07:59:45;;;;;;;10.25;5.70;;;;;;;;;;4992872;28;20026;-80
2022/05/09 08:02:11;;;;;;;10.07;4.13;;;;;;;;;;4992581;28;20030;-80
2022/05/09 08:04:37;;;;;;;9.15;5.05;;;;;;;;;;4993464;28;20117;-80
2022/05/09 08:07:03;;;;;;;15.15;6.60;;;;;;;;;;4993676;28;20383;-82
2022/05/09 08:09:30;;;;;;;10.02;4.13;;;;;;;;;;4993681;28;20022;-81
2022/05/09 08:11:57;;;;;;;10.38;4.78;;;;;;;;;;4993700;28;20018;-81
2022/05/09 08:14:24;;;;;;;12.85;6.82;;;;;;;;;;4994394;28;20090;-81
2022/05/09 08:16:50;;;;;;;8.80;3.50;;;;;;;;;;5013394;28;20049;-81
2022/05/09 08:19:17;;;;;;;9.38;5.32;;;;;;;;;;5013367;28;20026;-81
2022/05/09 08:21:47;;;;;;;9.95;4.75;;;;;;;;;;5013226;28;20018;-81
2022/05/09 08:24:13;;;;;;;17.00;10.75;;;;;;;;;;5013326;28;20045;-81
2022/05/09 08:26:39;;;;;;;13.50;4.60;;;;;;;;;;5013011;28;20105;-82
2022/05/09 08:29:07;;;;;;;39.38;28.98;;;;;;;;;;5011651;28;20037;-80
2022/05/09 08:31:33;;;;;;;13.38;6.20;;;;;;;;;;5012704;28;20054;-80
2022/05/09 08:33:59;;;;;;;10.90;5.70;;;;;;;;;;5012839;28;20075;-81
2022/05/09 08:39:10;;;;;;;24.98;18.27;;;;;;;;;;5012612;28;20064;-81
2022/05/09 08:41:45;;;;;;;18.15;6.20;;;;;;;;;;5012771;28;20061;-81
2022/05/09 08:44:22;;;;;;;16.95;8.18;;;;;;;;;;5012709;28;20040;-81
2022/05/09 08:46:51;;;;;;;6.85;3.92;;;;;;;;;;5012606;28;20026;-79
2022/05/09 08:49:26;;;;;;;12.32;6.70;;;;;;;;;;5012661;28;20079;-81
2022/05/09 08:51:58;;;;;;;7.35;4.05;;;;;;;;;;5011275;28;20124;-80
2022/05/09 08:54:25;;;;;;;7.07;4.30;;;;;;;;;;5012080;28;20073;-81
2022/05/09 08:56:56;;;;;;;10.98;5.45;;;;;;;;;;5012524;28;20473;-80
2022/05/09 08:59:25;;;;;;;9.25;5.63;;;;;;;;;;5011021;28;20018;-81
2022/05/09 09:01:58;;;;;;;12.20;5.43;;;;;;;;;;5012154;28;20142;-80
2022/05/09 09:04:29;;;;;;;16.17;11.35;;;;;;;;;;5012421;28;20052;-81
2022/05/09 09:07:04;;;;;;;7.32;4.60;;;;;;;;;;5012763;28;20064;-81
2022/05/09 09:09:38;;;;;;;12.38;3.70;;;;;;;;;;5012220;28;20060;-83
2022/05/09 09:12:04;;;;;;;7.85;5.05;;;;;;;;;;5012596;28;20022;-82
2022/05/09 09:14:56;;;;;;;6.82;3.63;;;;;;;;;;4994602;28;20478;-80
2022/05/09 09:17:41;;;;;;;9.90;3.55;;;;;;;;;;4995408;28;20041;-80
2022/05/09 09:20:22;;;;;;;10.18;4.88;;;;;;;;;;5012092;28;20064;-80
2022/05/09 09:23:03;;;;;;;9.60;6.22;;;;;;;;;;5011805;28;20036;-80
2022/05/09 09:25:37;;;;;;;7.93;5.15;;;;;;;;;;5011181;28;20030;-80
2022/05/09 09:28:15;;;;;;;14.75;6.28;;;;;;;;;;5011068;28;20034;-79
2022/05/09 09:30:42;;;;;;;8.90;3.88;;;;;;;;;;5011593;28;20025;-80
2022/05/09 09:33:10;;;;;;;11.15;4.05;;;;;;;;;;4990258;28;20474;-79
2022/05/09 09:35:39;;;;;;;6.60;3.63;;;;;;;;;;4991867;28;20034;-79
2022/05/09 09:38:24;;;;;;;8.20;5.47;;;;;;;;;;5005683;28;20053;-79
2022/05/09 09:40:51;;;;;;;16.88;9.85;;;;;;;;;;5005543;28;20109;-79
2022/05/09 09:43:17;;;;;;;14.73;6.22;;;;;;;;;;5010890;28;20025;-79
2022/05/09 09:45:46;;;;;;;7.05;4.10;;;;;;;;;;5010952;28;20469;-79
2022/05/09 09:48:12;;;;;;;9.82;4.25;;;;;;;;;;5011093;28;20018;-79
2022/05/09 09:50:51;;;;;;;10.55;5.55;;;;;;;;;;5010949;28;20483;-80
2022/05/09 09:53:29;;;;;;;9.27;4.13;;;;;;;;;;5013540;28;20022;-79
2022/05/09 09:56:05;;;;;;;8.95;5.72;;;;;;;;;;5013194;28;20100;-80
2022/05/09 09:58:31;;;;;;;7.55;3.53;;;;;;;;;;5012437;28;20041;-80
2022/05/09 10:01:11;;;;;;;8.95;4.45;;;;;;;;;;5015014;28;20021;-80
2022/05/09 10:03:39;;;;;;;12.43;4.97;;;;;;;;;;5013099;28;20026;-81
2022/05/09 10:06:14;;;;;;;7.43;4.60;;;;;;;;;;5014060;28;20575;-80
2022/05/09 10:08:41;;;;;;;10.00;3.78;;;;;;;;;;5014669;28;20014;-81
2022/05/09 10:11:08;;;;;;;8.75;5.78;;;;;;;;;;5014503;28;20469;-79
2022/05/09 10:13:42;;;;;;;19.55;11.77;;;;;;;;;;5014754;28;20014;-81
2022/05/09 10:16:33;;;;;;;12.07;6.53;;;;;;;;;;5013883;28;20018;-82
2022/05/09 10:19:00;;;;;;;12.88;7.57;;;;;;;;;;5019126;28;20039;-80
2022/05/09 10:27:09;;;;;;;15.73;9.45;;;;;;;;;;5011071;28;20049;-77
2022/05/09 10:29:38;;;;;;;46.75;35.92;;;;;;;;;;5011700;28;20022;-78
2022/05/09 10:32:07;;;;;;;89.07;69.35;;;;;;;;;;5013808;28;20026;-77
2022/05/09 10:34:38;;;;;;;39.33;29.98;;;;;;;;;;5011817;28;20025;-77
2022/05/09 10:37:12;;;;;;;30.95;22.63;;;;;;;;;;5013570;28;20026;-78
2022/05/09 10:39:40;;;;;;;26.70;19.80;;;;;;;;;;5013310;28;20026;-78
2022/05/09 10:42:09;;;;;;;14.25;9.30;;;;;;;;;;5013266;28;20030;-79
2022/05/09 10:44:35;;;;;;;15.40;8.18;;;;;;;;;;5014450;28;20531;-79
2022/05/09 10:47:06;;;;;;;11.70;8.57;;;;;;;;;;5003622;28;20049;-79
2022/05/09 10:49:43;;;;;;;11.82;5.55;;;;;;;;;;4993093;28;20080;-79
2022/05/09 10:52:12;;;;;;;10.00;6.70;;;;;;;;;;4993224;28;20033;-81
2022/05/09 10:54:42;;;;;;;24.05;15.88;;;;;;;;;;4993521;28;20029;-81
2022/05/09 10:57:21;;;;;;;23.25;11.48;;;;;;;;;;4993303;28;20062;-81
2022/05/09 10:59:47;;;;;;;7.18;3.47;;;;;;;;;;5000620;28;20021;-82
2022/05/09 11:02:20;;;;;;;7.55;3.78;;;;;;;;;;4994312;28;20023;-80
2022/05/09 11:04:46;;;;;;;8.98;7.03;;;;;;;;;;4992687;28;20041;-80
2022/05/09 11:07:25;;;;;;;14.50;6.65;;;;;;;;;;4992817;28;20581;-80
2022/05/09 11:09:57;;;;;;;11.65;9.35;;;;;;;;;;4994060;28;20022;-80
2022/05/09 11:12:42;;;;;;;9.02;5.50;;;;;;;;;;5011846;28;20037;-79
2022/05/09 11:15:11;;;;;;;10.82;6.35;;;;;;;;;;4992541;28;20053;-80
2022/05/09 11:17:37;;;;;;;16.83;7.78;;;;;;;;;;4996984;28;20569;-79
2022/05/09 11:20:13;;;;;;;13.55;7.90;;;;;;;;;;5011877;28;20108;-78
2022/05/09 11:22:48;;;;;;;36.40;21.70;;;;;;;;;;5011408;28;20111;-81
2022/05/09 11:25:14;;;;;;;9.10;5.28;;;;;;;;;;5012142;28;20034;-78
2022/05/09 11:28:03;;;;;;;14.88;8.48;;;;;;;;;;5011962;28;20032;-80
2022/05/09 11:30:49;;;;;;;12.80;7.28;;;;;;;;;;5003796;28;20049;-79
2022/05/09 11:33:51;;;;;;;6.38;3.30;;;;;;;;;;5011261;28;20030;-78
2022/05/09 11:36:20;;;;;;;24.98;16.52;;;;;;;;;;4952212;28;20400;-78
2022/05/09 11:38:52;;;;;;;20.02;14.40;;;;;;;;;;4997559;28;20046;-79
2022/05/09 11:41:37;;;;;;;9.38;3.70;;;;;;;;;;5011921;28;20030;-78
2022/05/09 11:44:04;;;;;;;11.40;4.70;;;;;;;;;;5004527;28;20038;-79
2022/05/09 11:46:30;;;;;;;7.82;3.38;;;;;;;;;;5005780;28;20037;-79
2022/05/09 11:48:56;;;;;;;9.52;4.80;;;;;;;;;;5011780;28;20026;-79
2022/05/09 11:51:28;;;;;;;11.95;7.80;;;;;;;;;;5013050;28;20470;-79
2022/05/09 11:53:57;;;;;;;18.80;11.15;;;;;;;;;;5012654;28;20037;-77
2022/05/09 11:56:23;;;;;;;10.38;4.22;;;;;;;;;;5011724;28;20072;-80
2022/05/09 11:58:49;;;;;;;8.05;4.10;;;;;;;;;;5011713;28;20362;-79
2022/05/09 12:01:15;;;;;;;7.65;5.20;;;;;;;;;;5011627;28;20022;-81
2022/05/09 12:03:42;;;;;;;6.32;3.90;;;;;;;;;;5012529;28;20109;-78
2022/05/09 12:06:12;;;;;;;12.25;8.27;;;;;;;;;;4991274;28;20116;-78
2022/05/09 12:08:43;;;;;;;9.40;3.65;;;;;;;;;;5011941;28;20474;-78
2022/05/09 12:11:29;;;;;;;10.52;4.90;;;;;;;;;;4992160;28;20073;-77
2022/05/09 12:13:57;;;;;;;13.18;6.40;;;;;;;;;;5008578;28;20022;-78
2022/05/09 12:16:35;;;;;;;7.68;3.72;;;;;;;;;;5011850;28;20093;-77
2022/05/09 12:19:03;;;;;;;14.82;4.68;;;;;;;;;;5010704;28;20080;-77
2022/05/09 12:21:34;;;;;;;11.38;3.92;;;;;;;;;;4994670;28;20057;-77
2022/05/09 12:24:18;;;;;;;9.50;4.05;;;;;;;;;;5011733;28;20018;-76
2022/05/09 12:26:46;;;;;;;11.55;7.00;;;;;;;;;;5009727;28;20073;-77
2022/05/09 12:29:12;;;;;;;15.50;6.00;;;;;;;;;;4996884;28;20025;-78
2022/05/09 12:31:57;;;;;;;5.70;4.03;;;;;;;;;;5011491;28;20021;-77
2022/05/09 12:34:30;;;;;;;7.97;3.83;;;;;;;;;;5011064;28;20018;-78
2022/05/09 12:36:56;;;;;;;7.50;5.20;;;;;;;;;;5008866;28;20060;-79
2022/05/09 12:39:29;;;;;;;6.25;4.18;;;;;;;;;;5011796;28;20061;-78
2022/05/09 12:41:56;;;;;;;10.15;6.32;;;;;;;;;;5009956;28;20022;-79
2022/05/09 12:44:44;;;;;;;17.55;11.45;;;;;;;;;;4996589;28;20045;-79
2022/05/09 12:47:14;;;;;;;22.27;19.55;;;;;;;;;;4993808;28;20022;-78
2022/05/09 12:50:00;;;;;;;6.38;3.60;;;;;;;;;;4999366;28;20054;-78
2022/05/09 12:52:29;;;;;;;5.65;4.22;;;;;;;;;;5009668;28;20164;-78
2022/05/09 12:57:41;;;;;;;5.43;3.65;;;;;;;;;;5010368;28;20115;-77
2022/05/09 13:00:09;;;;;;;7.07;3.92;;;;;;;;;;4993736;28;20022;-76
2022/05/09 13:02:35;;;;;;;9.48;4.43;;;;;;;;;;5011424;28;20021;-77
2022/05/09 13:05:02;;;;;;;8.93;3.40;;;;;;;;;;4996352;28;20560;-78
2022/05/09 13:07:29;;;;;;;7.65;3.35;;;;;;;;;;5010712;28;20496;-77
2022/05/09 13:09:55;;;;;;;13.05;5.25;;;;;;;;;;5012152;28;20054;-77
2022/05/09 13:12:24;;;;;;;6.90;4.75;;;;;;;;;;5011979;28;20105;-77
2022/05/09 13:14:59;;;;;;;7.03;4.72;;;;;;;;;;5010151;28;20026;-79
2022/05/09 13:17:29;;;;;;;10.27;6.00;;;;;;;;;;5004419;28;20022;-80
2022/05/09 13:19:56;;;;;;;8.25;3.75;;;;;;;;;;5010406;28;20076;-79
2022/05/09 13:22:23;;;;;;;8.23;3.65;;;;;;;;;;5010393;28;20051;-78
2022/05/09 13:24:50;;;;;;;7.43;3.25;;;;;;;;;;5010478;28;20034;-78
2022/05/09 13:27:21;;;;;;;17.63;4.40;;;;;;;;;;5012999;28;20018;-77
2022/05/09 13:29:50;;;;;;;5.43;3.58;;;;;;;;;;5002815;28;20030;-79
2022/05/09 13:32:30;;;;;;;11.10;3.90;;;;;;;;;;4994461;28;20030;-78
2022/05/09 13:34:57;;;;;;;10.63;5.13;;;;;;;;;;5008935;28;20065;-79
2022/05/09 13:37:28;;;;;;;9.27;4.90;;;;;;;;;;5011166;28;20018;-78
2022/05/09 13:39:56;;;;;;;12.80;6.45;;;;;;;;;;4995855;28;20054;-80
2022/05/09 13:42:22;;;;;;;6.50;3.22;;;;;;;;;;5010965;28;20027;-79
2022/05/09 13:44:49;;;;;;;10.50;6.85;;;;;;;;;;5010832;28;20042;-79
2022/05/09 13:47:16;;;;;;;18.08;5.80;;;;;;;;;;4995986;28;20019;-78
2022/05/09 13:49:43;;;;;;;26.25;15.65;;;;;;;;;;5011888;28;20037;-78
2022/05/09 13:52:10;;;;;;;9.18;5.65;;;;;;;;;;4997222;28;20480;-77
2022/05/09 13:54:50;;;;;;;5.20;3.28;;;;;;;;;;5000021;28;20054;-78
2022/05/09 13:57:18;;;;;;;12.20;4.28;;;;;;;;;;5008774;28;20436;-77
2022/05/09 13:59:45;;;;;;;8.23;3.65;;;;;;;;;;4997075;28;20046;-77
2022/05/09 14:02:13;;;;;;;7.80;3.92;;;;;;;;;;5014392;28;20014;-77
2022/05/09 14:04:40;;;;;;;7.20;3.33;;;;;;;;;;5014423;28;20038;-77
2022/05/09 14:09:51;;;;;;;12.18;4.38;;;;;;;;;;5013410;28;20092;-76
2022/05/09 14:12:19;;;;;;;7.75;3.45;;;;;;;;;;5014498;28;20104;-78
2022/05/09 14:14:47;;;;;;;8.43;5.45;;;;;;;;;;5014180;28;20384;-78
2022/05/09 14:17:21;;;;;;;6.60;4.22;;;;;;;;;;5013922;28;20050;-78
2022/05/09 14:19:50;;;;;;;6.70;4.07;;;;;;;;;;5013900;28;20434;-77
2022/05/09 14:22:19;;;;;;;6.03;3.75;;;;;;;;;;5010773;28;20085;-76
2022/05/09 14:30:20;;;;;;;5.32;4.00;;;;;;;;;;5012059;28;20121;-77
2022/05/09 14:32:52;;;;;;;8.25;3.83;;;;;;;;;;5013736;28;20346;-76
2022/05/09 14:35:36;;;;;;;11.35;7.00;;;;;;;;;;5006013;28;20034;-79
2022/05/09 14:38:03;;;;;;;9.43;6.82;;;;;;;;;;5010873;28;20030;-79
2022/05/09 14:40:30;;;;;;;10.82;5.68;;;;;;;;;;5013483;28;20104;-81
2022/05/09 14:43:06;;;;;;;11.35;4.60;;;;;;;;;;5009627;28;20028;-80
2022/05/09 14:45:34;;;;;;;11.88;4.20;;;;;;;;;;5013791;28;20132;-79
2022/05/09 14:48:02;;;;;;;6.97;3.28;;;;;;;;;;5014018;28;20025;-78
2022/05/09 14:50:29;;;;;;;5.70;3.70;;;;;;;;;;5013165;28;20183;-79
2022/05/09 14:53:00;;;;;;;7.90;3.42;;;;;;;;;;5014629;28;20049;-79
2022/05/09 14:58:37;;;;;;;8.40;4.25;;;;;;;;;;5013795;28;20037;-80
2022/05/09 15:01:18;;;;;;;7.32;3.50;;;;;;;;;;5013191;28;20018;-82
2022/05/09 15:03:46;;;;;;;6.40;3.88;;;;;;;;;;5012873;28;20034;-80
2022/05/09 15:06:12;;;;;;;16.98;6.50;;;;;;;;;;5012572;28;20054;-79
2022/05/09 15:08:39;;;;;;;6.10;3.47;;;;;;;;;;5011308;28;20116;-81
2022/05/09 15:11:13;;;;;;;6.97;3.88;;;;;;;;;;5012606;28;20424;-81
2022/05/09 15:13:39;;;;;;;6.30;3.55;;;;;;;;;;5008465;28;20026;-80